createdAt,value
2022-09-12T00:02:18.409Z,100157.38
2022-09-12T00:04:45.149Z,100164.38
2022-09-12T00:07:12.345Z,100168.75
2022-09-12T00:09:39.200Z,100170.47
2022-09-12T00:12:05.987Z,100163.50
2022-09-12T00:14:35.661Z,100157.38
2022-09-12T00:17:02.683Z,100153.00
2022-09-12T00:19:29.624Z,100156.53
2022-09-12T00:21:56.831Z,100151.31
2022-09-12T00:24:24.020Z,100145.22
2022-09-12T00:26:50.698Z,100148.72
2022-09-12T00:29:18.455Z,100142.59
2022-09-12T00:31:45.780Z,100142.63
2022-09-12T00:34:12.734Z,100141.72
2022-09-12T00:36:39.954Z,100140.84
2022-09-12T00:39:07.484Z,100140.81
2022-09-12T00:41:38.247Z,100137.31
2022-09-12T00:44:32.390Z,100148.63
2022-09-12T00:47:01.066Z,100137.28
2022-09-12T00:49:27.800Z,100138.16
2022-09-12T00:52:00.700Z,100132.91
2022-09-12T00:54:30.865Z,100138.16
2022-09-12T00:57:00.733Z,100139.91
2022-09-12T00:59:30.249Z,100139.03
2022-09-12T01:01:57.116Z,100145.16
2022-09-12T01:04:25.875Z,100141.66
2022-09-12T01:06:54.141Z,100140.81
2022-09-12T01:09:22.782Z,100133.81
2022-09-12T01:11:50.654Z,100146.88
2022-09-12T01:14:18.314Z,100141.63
2022-09-12T01:16:45.800Z,100134.63
2022-09-12T01:19:12.779Z,100131.97
2022-09-12T01:21:48.944Z,100132.78
2022-09-12T01:24:15.681Z,100129.28
2022-09-12T01:27:06.765Z,100137.16
2022-09-12T01:29:42.631Z,100128.47
2022-09-12T01:32:09.636Z,100125.81
2022-09-12T01:34:36.343Z,100126.59
2022-09-12T01:37:06.975Z,100124.84
2022-09-12T01:39:39.979Z,100124.81
2022-09-12T01:42:10.937Z,100130.84
2022-09-12T01:44:37.779Z,100129.09
2022-09-12T01:47:11.619Z,100126.44
2022-09-12T01:49:46.884Z,100128.09
2022-09-12T01:52:26.214Z,100127.16
2022-09-12T01:54:59.302Z,100127.13
2022-09-12T01:57:30.094Z,100129.72
2022-09-12T02:00:00.411Z,100123.63
2022-09-12T02:02:27.223Z,100129.78
2022-09-12T02:05:09.848Z,100125.41
2022-09-12T02:07:39.374Z,100127.16
2022-09-12T02:10:06.204Z,100129.75
2022-09-12T02:12:37.577Z,100131.50
2022-09-12T02:15:07.345Z,100125.44
2022-09-12T02:17:38.597Z,100132.38
2022-09-12T02:20:43.984Z,100133.28
2022-09-12T02:23:08.954Z,100132.41
2022-09-12T02:25:38.003Z,100133.31
2022-09-12T02:28:10.163Z,100133.31
2022-09-12T02:30:42.339Z,100124.47
2022-09-12T02:33:35.507Z,100129.66
2022-09-12T02:36:02.465Z,100133.22
2022-09-12T02:38:43.230Z,100126.22
2022-09-12T02:41:11.055Z,100128.75
2022-09-12T02:43:38.281Z,100127.81
2022-09-12T02:46:07.660Z,100129.53
2022-09-12T02:48:37.521Z,100130.47
2022-09-12T02:51:05.171Z,100133.13
2022-09-12T02:53:31.927Z,100129.63
2022-09-12T02:55:58.785Z,100130.47
2022-09-12T02:58:30.750Z,100136.50
2022-09-12T03:00:57.892Z,100132.91
2022-09-12T03:03:43.637Z,100131.94
2022-09-12T03:06:13.694Z,100131.94
2022-09-12T03:08:51.003Z,100137.09
2022-09-12T03:11:24.108Z,100133.59
2022-09-12T03:14:00.143Z,100131.81
2022-09-12T03:16:27.162Z,100126.59
2022-09-12T03:19:01.675Z,100123.97
2022-09-12T03:21:28.762Z,100120.50
2022-09-12T03:24:01.852Z,100119.59
2022-09-12T03:26:41.146Z,100132.56
2022-09-12T03:29:08.467Z,100136.84
2022-09-12T03:31:35.206Z,100134.13
2022-09-12T03:34:02.314Z,100136.66
2022-09-12T03:36:30.085Z,100134.00
2022-09-12T03:38:57.044Z,100137.44
2022-09-12T03:41:24.049Z,100140.84
2022-09-12T03:43:50.887Z,100138.25
2022-09-12T03:46:17.569Z,100133.00
2022-09-12T03:48:44.637Z,100136.44
2022-09-12T03:51:11.539Z,100132.09
2022-09-12T03:53:38.297Z,100140.78
2022-09-12T03:56:09.489Z,100134.66
2022-09-12T03:58:36.462Z,100134.63
2022-09-12T04:01:12.933Z,100135.47
2022-09-12T04:03:43.725Z,100134.56
2022-09-12T04:06:11.492Z,100133.69
2022-09-12T04:08:38.636Z,100132.84
2022-09-12T04:11:07.290Z,100137.97
2022-09-12T04:13:34.648Z,100136.22
2022-09-12T04:16:02.042Z,100136.28
2022-09-12T04:18:29.033Z,100134.56
2022-09-12T04:20:55.894Z,100131.06
2022-09-12T04:23:22.921Z,100129.34
2022-09-12T04:25:59.493Z,100141.53
2022-09-12T04:28:27.281Z,100135.44
2022-09-12T04:30:53.965Z,100131.06
2022-09-12T04:33:20.791Z,100127.59
2022-09-12T04:35:48.336Z,100129.41
2022-09-12T04:38:15.141Z,100130.34
2022-09-12T04:40:41.793Z,100139.91
2022-09-12T04:43:14.212Z,100139.03
2022-09-12T04:45:41.455Z,100133.84
2022-09-12T04:48:08.171Z,100139.94
2022-09-12T04:50:35.839Z,100138.19
2022-09-12T04:53:02.499Z,100138.19
2022-09-12T04:55:29.243Z,100139.16
2022-09-12T04:57:56.232Z,100134.84
2022-09-12T05:00:22.992Z,100129.72
2022-09-12T05:02:49.739Z,100137.69
2022-09-12T05:05:17.550Z,100123.75
2022-09-12T05:07:44.265Z,100132.38
2022-09-12T05:10:11.782Z,100133.16
2022-09-12T05:12:39.427Z,100140.91
2022-09-12T05:15:06.639Z,100133.94
2022-09-12T05:17:33.288Z,100130.44
2022-09-12T05:20:00.937Z,100127.72
2022-09-12T05:22:27.791Z,100133.72
2022-09-12T05:24:54.656Z,100129.34
2022-09-12T05:27:21.860Z,100127.72
2022-09-12T05:29:48.610Z,100137.38
2022-09-12T05:32:15.624Z,100138.34
2022-09-12T05:34:42.564Z,100137.53
2022-09-12T05:37:09.203Z,100134.13
2022-09-12T05:39:36.722Z,100140.28
2022-09-12T05:42:04.089Z,100124.66
2022-09-12T05:44:33.462Z,100129.91
2022-09-12T05:47:00.125Z,100132.59
2022-09-12T05:49:27.469Z,100124.00
2022-09-12T05:51:54.305Z,100122.38
2022-09-12T05:54:21.499Z,100123.31
2022-09-12T05:56:49.169Z,100122.53
2022-09-12T05:59:17.449Z,100116.44
2022-09-12T06:01:45.021Z,100120.75
2022-09-12T06:04:12.206Z,100116.44
2022-09-12T06:06:41.755Z,100117.34
2022-09-12T06:09:09.344Z,100108.63
2022-09-12T06:11:37.551Z,100112.19
2022-09-12T06:14:04.790Z,100121.03
2022-09-12T06:16:32.722Z,100115.72
2022-09-12T06:19:07.333Z,100109.50
2022-09-12T06:21:40.109Z,100117.28
2022-09-12T06:24:08.049Z,100130.34
2022-09-12T06:26:34.915Z,100119.06
2022-09-12T06:29:02.481Z,100112.13
2022-09-12T06:31:34.558Z,100118.31
2022-09-12T06:34:02.538Z,100112.22
2022-09-12T06:36:30.859Z,100132.28
2022-09-12T06:39:01.034Z,100126.19
2022-09-12T06:41:32.059Z,100135.78
2022-09-12T06:43:59.848Z,100136.63
2022-09-12T06:46:27.458Z,100139.28
2022-09-12T06:48:59.461Z,100131.47
2022-09-12T06:51:29.031Z,100133.25
2022-09-12T06:53:57.477Z,100135.88
2022-09-12T06:56:26.499Z,100134.16
2022-09-12T06:58:55.523Z,100139.41
2022-09-12T07:01:23.966Z,100142.91
2022-09-12T07:03:52.378Z,100136.75
2022-09-12T07:06:20.953Z,100146.31
2022-09-12T07:08:48.158Z,100135.94
2022-09-12T07:11:20.166Z,100152.59
2022-09-12T07:13:48.697Z,100144.88
2022-09-12T07:16:19.442Z,100142.34
2022-09-12T07:18:57.810Z,100131.97
2022-09-12T07:21:25.304Z,100144.25
2022-09-12T07:23:52.083Z,100146.88
2022-09-12T07:26:19.404Z,100151.28
2022-09-12T07:28:50.609Z,100148.66
2022-09-12T07:31:18.960Z,100145.16
2022-09-12T07:33:45.938Z,100140.81
2022-09-12T07:36:14.409Z,100142.56
2022-09-12T07:38:45.324Z,100153.91
2022-09-12T07:41:15.246Z,100144.38
2022-09-12T07:43:42.140Z,100150.50
2022-09-12T07:46:09.621Z,100146.09
2022-09-12T07:48:37.045Z,100146.88
2022-09-12T07:51:05.702Z,100153.75
2022-09-12T07:53:34.289Z,100140.59
2022-09-12T07:56:03.179Z,100140.59
2022-09-12T07:58:30.506Z,100138.78
2022-09-12T08:01:08.982Z,100152.72
2022-09-12T08:03:36.487Z,100142.22
2022-09-12T08:06:11.975Z,100157.88
2022-09-12T08:08:38.910Z,100155.28
2022-09-12T08:11:06.808Z,100143.13
2022-09-12T08:13:37.919Z,100158.09
2022-09-12T08:16:13.256Z,100152.81
2022-09-12T08:18:41.133Z,100150.16
2022-09-12T08:21:10.480Z,100140.59
2022-09-12T08:23:37.191Z,100151.03
2022-09-12T08:26:06.346Z,100151.88
2022-09-12T08:28:37.367Z,100148.41
2022-09-12T08:31:08.502Z,100144.06
2022-09-12T08:33:35.517Z,100142.28
2022-09-12T08:36:03.578Z,100137.94
2022-09-12T08:38:30.498Z,100134.47
2022-09-12T08:41:21.279Z,100148.44
2022-09-12T08:43:51.997Z,100146.69
2022-09-12T08:46:28.181Z,100147.66
2022-09-12T08:48:55.738Z,100140.66
2022-09-12T08:51:23.331Z,100141.50
2022-09-12T08:53:56.502Z,100130.13
2022-09-12T08:56:29.643Z,100131.94
2022-09-12T08:59:00.901Z,100132.84
2022-09-12T09:01:32.709Z,100133.72
2022-09-12T09:03:59.521Z,100123.28
2022-09-12T09:06:42.736Z,100126.81
2022-09-12T09:09:20.592Z,100132.06
2022-09-12T09:12:04.921Z,100136.44
2022-09-12T09:14:50.985Z,100132.97
2022-09-12T09:17:18.431Z,100126.03
2022-09-12T09:19:50.984Z,100127.81
2022-09-12T09:22:34.139Z,100146.16
2022-09-12T09:25:04.976Z,100132.22
2022-09-12T09:27:40.816Z,100127.91
2022-09-12T09:30:28.694Z,100140.16
2022-09-12T09:33:05.294Z,100137.53
2022-09-12T09:36:02.756Z,100141.91
2022-09-12T09:38:50.519Z,100142.78
2022-09-12T09:41:29.297Z,100141.00
2022-09-12T09:44:00.741Z,100137.47
2022-09-12T09:46:49.961Z,100140.94
2022-09-12T09:49:23.462Z,100142.69
2022-09-12T09:51:51.453Z,100147.94
2022-09-12T09:54:30.047Z,100157.56
2022-09-12T09:57:05.632Z,100137.50
2022-09-12T09:59:35.624Z,100145.31
2022-09-12T10:02:24.560Z,100136.59
2022-09-12T10:05:00.225Z,100140.09
2022-09-12T10:07:30.722Z,100145.34
2022-09-12T10:10:25.144Z,100126.97
2022-09-12T10:13:10.207Z,100138.31
2022-09-12T10:16:03.690Z,100138.31
2022-09-12T10:18:56.801Z,100126.09
2022-09-12T10:21:41.481Z,100138.31
2022-09-12T10:24:35.954Z,100130.50
2022-09-12T10:27:08.534Z,100136.63
2022-09-12T10:29:45.912Z,100135.69
2022-09-12T10:32:30.701Z,100139.19
2022-09-12T10:35:06.017Z,100133.09
2022-09-12T10:37:36.554Z,100134.84
2022-09-12T10:40:10.828Z,100131.31
2022-09-12T10:42:55.166Z,100127.84
2022-09-12T10:45:24.805Z,100140.97
2022-09-12T10:47:52.038Z,100127.91
2022-09-12T10:50:22.886Z,100135.75
2022-09-12T10:53:01.941Z,100136.66
2022-09-12T10:55:36.070Z,100134.88
2022-09-12T10:58:11.198Z,100129.66
2022-09-12T11:00:41.312Z,100122.66
2022-09-12T11:03:25.997Z,100134.91
2022-09-12T11:05:57.383Z,100127.91
2022-09-12T11:08:28.267Z,100125.25
2022-09-12T11:11:13.823Z,100131.38
2022-09-12T11:13:51.095Z,100114.75
2022-09-12T11:16:26.305Z,100120.88
2022-09-12T11:19:04.205Z,100118.25
2022-09-12T11:21:38.115Z,100111.25
2022-09-12T11:24:31.610Z,100111.25
2022-09-12T11:27:13.826Z,100115.66
2022-09-12T11:29:47.448Z,100113.03
2022-09-12T11:32:25.636Z,100115.63
2022-09-12T11:34:56.162Z,100116.50
2022-09-12T11:37:45.481Z,100121.72
2022-09-12T11:40:23.301Z,100107.72
2022-09-12T11:42:56.605Z,100108.56
2022-09-12T11:45:33.831Z,100105.91
2022-09-12T11:48:04.513Z,100101.50
2022-09-12T11:50:32.460Z,100095.31
2022-09-12T11:53:26.154Z,100104.94
2022-09-12T11:56:03.885Z,100090.97
2022-09-12T11:58:31.017Z,100084.81
2022-09-12T12:01:15.332Z,100085.66
2022-09-12T12:03:43.819Z,100081.19
2022-09-12T12:06:10.731Z,100086.53
2022-09-12T12:08:38.864Z,100081.19
2022-09-12T12:11:08.056Z,100075.09
2022-09-12T12:13:34.977Z,100075.09
2022-09-12T12:16:08.412Z,100065.44
2022-09-12T12:18:54.897Z,100069.75
2022-09-12T12:21:31.884Z,100069.75
2022-09-12T12:24:05.135Z,100077.72
2022-09-12T12:26:43.030Z,100071.53
2022-09-12T12:29:11.505Z,100067.22
2022-09-12T12:31:58.179Z,100059.25
2022-09-12T12:34:35.779Z,100062.66
2022-09-12T12:37:21.069Z,100054.84
2022-09-12T12:39:48.594Z,100059.22
2022-09-12T12:42:35.184Z,100052.16
2022-09-12T12:45:05.833Z,100051.22
2022-09-12T12:47:33.123Z,100048.59
2022-09-12T12:50:04.629Z,100054.63
2022-09-12T12:52:47.193Z,100047.66
2022-09-12T12:55:21.510Z,100052.84
2022-09-12T12:57:51.473Z,100058.19
2022-09-12T13:00:21.396Z,100053.84
2022-09-12T13:02:57.852Z,100056.50
2022-09-12T13:05:26.298Z,100050.34
2022-09-12T13:07:54.689Z,100054.75
2022-09-12T13:10:29.484Z,100048.53
2022-09-12T13:12:58.722Z,100038.75
2022-09-12T13:15:51.979Z,100039.56
2022-09-12T13:18:24.866Z,100050.06
2022-09-12T13:20:56.150Z,100045.81
2022-09-12T13:23:27.787Z,100040.53
2022-09-12T13:26:01.109Z,100044.00
2022-09-12T13:28:29.322Z,100045.69
2022-09-12T13:31:01.612Z,100043.84
2022-09-12T13:33:29.172Z,100048.25
2022-09-12T13:36:02.451Z,100048.34
2022-09-12T13:38:30.478Z,100036.97
2022-09-12T13:40:59.951Z,100058.16
2022-09-12T13:43:36.282Z,100043.28
2022-09-12T13:46:03.778Z,100045.00
2022-09-12T13:48:30.939Z,100045.06
2022-09-12T13:51:00.192Z,100035.47
2022-09-12T13:53:31.473Z,100044.25
2022-09-12T13:55:59.327Z,100037.22
2022-09-12T13:58:27.967Z,100032.81
2022-09-12T14:01:01.603Z,100039.84
2022-09-12T14:03:48.790Z,100031.00
2022-09-12T14:06:18.314Z,100038.00
2022-09-12T14:08:47.054Z,100037.16
2022-09-12T14:11:27.600Z,100035.41
2022-09-12T14:17:59.289Z,100030.28
2022-09-12T14:20:33.411Z,100028.56
2022-09-12T14:23:02.709Z,100028.66
2022-09-12T14:25:35.644Z,100026.09
2022-09-12T14:28:02.748Z,100026.09
2022-09-12T14:30:34.853Z,100024.38
2022-09-12T14:33:10.368Z,100026.13
2022-09-12T14:35:40.267Z,100027.91
2022-09-12T14:38:30.237Z,100025.31
2022-09-12T14:41:10.313Z,100024.41
2022-09-12T14:43:52.800Z,100028.75
2022-09-12T14:46:22.385Z,100030.53
2022-09-12T14:52:35.450Z,100034.03
2022-09-12T14:55:04.375Z,100037.53
2022-09-12T14:57:31.275Z,100031.44
2022-09-12T15:00:16.644Z,100030.59
2022-09-12T15:02:48.195Z,100026.22
2022-09-12T15:05:16.884Z,100050.69
2022-09-12T15:07:57.466Z,100037.69
2022-09-12T15:10:27.783Z,100039.50
2022-09-12T15:13:09.829Z,100036.88
2022-09-12T15:15:38.041Z,100040.38
2022-09-12T15:18:08.909Z,100038.63
2022-09-12T15:20:57.480Z,100042.19
2022-09-12T15:23:44.423Z,100044.84
2022-09-12T15:26:15.812Z,100045.72
2022-09-12T15:28:43.181Z,100044.84
2022-09-12T15:31:16.418Z,100055.38
2022-09-12T15:33:43.868Z,100051.00
2022-09-12T15:36:13.205Z,100049.28
2022-09-12T15:38:39.877Z,100054.53
2022-09-12T15:41:15.346Z,100057.19
2022-09-12T15:43:42.496Z,100049.31
2022-09-12T15:46:13.387Z,100045.84
2022-09-12T15:48:40.685Z,100056.34
2022-09-12T15:51:15.962Z,100058.94
2022-09-12T15:53:43.257Z,100052.00
2022-09-12T15:56:14.028Z,100053.75
2022-09-12T15:59:12.900Z,100057.25
2022-09-12T16:04:54.529Z,100066.84
2022-09-12T16:07:36.397Z,100067.69
2022-09-12T16:10:03.206Z,100066.81
2022-09-12T16:15:32.215Z,100072.06
2022-09-12T16:18:01.473Z,100075.53
2022-09-12T16:20:28.469Z,100079.00
2022-09-12T16:22:56.046Z,100072.00
2022-09-12T16:25:27.144Z,100082.47
2022-09-12T16:27:54.254Z,100085.97
2022-09-12T16:30:24.375Z,100075.47
2022-09-12T16:33:05.808Z,100080.72
2022-09-12T16:35:35.996Z,100078.97
2022-09-12T16:38:03.019Z,100073.75
2022-09-12T16:40:31.550Z,100078.94
2022-09-12T16:42:58.708Z,100081.59
2022-09-12T16:45:25.553Z,100079.81
2022-09-12T16:47:52.290Z,100077.22
2022-09-12T16:50:19.517Z,100075.44
2022-09-12T16:52:46.163Z,100074.56
2022-09-12T16:55:12.860Z,100068.44
2022-09-12T16:57:39.766Z,100074.56
2022-09-12T17:00:07.293Z,100077.19
2022-09-12T17:02:36.450Z,100071.09
2022-09-12T17:05:03.966Z,100068.47
2022-09-12T17:07:30.672Z,100077.19
2022-09-12T17:09:57.560Z,100073.69
2022-09-12T17:12:24.597Z,100075.47
2022-09-12T17:14:52.481Z,100078.94
2022-09-12T17:17:19.101Z,100078.06
2022-09-12T17:19:46.150Z,100091.13
2022-09-12T17:22:12.799Z,100078.91
2022-09-12T17:24:40.476Z,100075.44
2022-09-12T17:27:07.892Z,100077.19
2022-09-12T17:29:37.186Z,100071.06
2022-09-12T17:32:03.898Z,100066.72
2022-09-12T17:34:31.035Z,100069.34
2022-09-12T17:37:02.169Z,100066.72
2022-09-12T17:39:31.362Z,100071.06
2022-09-12T17:41:59.130Z,100072.81
2022-09-12T17:44:25.849Z,100071.94
2022-09-12T17:46:52.509Z,100075.41
2022-09-12T17:49:22.177Z,100069.31
2022-09-12T17:51:48.840Z,100074.53
2022-09-12T17:54:16.803Z,100071.91
2022-09-12T17:56:46.009Z,100061.47
2022-09-12T17:59:17.472Z,100060.56
2022-09-12T18:02:03.484Z,100060.59
2022-09-12T18:04:31.066Z,100057.09
2022-09-12T18:07:00.293Z,100066.72
2022-09-12T18:09:27.494Z,100063.19
2022-09-12T18:11:58.537Z,100059.72
2022-09-12T18:14:27.860Z,100057.13
2022-09-12T18:16:57.055Z,100068.44
2022-09-12T18:38:38.534Z,100069.31
